Time;durP1;ratioP1;P1;durP2;ratioP2;P2;SDS_P1;SDS_P2;PMS_P1;PMS_P2;Temp;Humidity;BMP_temperature;BMP_pressure;BME280_temperature;BME280_humidity;BME280_pressure;Samples;Min_cycle;Max_cycle;Signal;HPM_P1;HPM_P2
2023/09/10 00:01:32;;;;;;;16.08;14.48;;;19.30;99.90;;;;;;5020073;28;20064;-71
2023/09/10 00:03:58;;;;;;;16.27;14.60;;;19.30;99.90;;;;;;5036482;28;20049;-72
2023/09/10 00:06:24;;;;;;;16.55;14.85;;;19.20;99.90;;;;;;5036254;28;20447;-71
2023/09/10 00:08:50;;;;;;;16.20;14.50;;;19.20;99.90;;;;;;5036311;28;20041;-72
2023/09/10 00:11:15;;;;;;;16.75;15.05;;;19.20;99.90;;;;;;5054420;28;20040;-64
2023/09/10 00:13:41;;;;;;;18.38;16.55;;;19.20;99.90;;;;;;5036228;28;20048;-64
2023/09/10 00:16:07;;;;;;;16.90;15.18;;;19.10;99.90;;;;;;5019348;28;20048;-65
2023/09/10 00:18:33;;;;;;;16.98;15.35;;;19.10;99.90;;;;;;5036257;28;20040;-65
2023/09/10 00:21:00;;;;;;;16.77;15.18;;;19.10;99.90;;;;;;5035948;28;20045;-65
2023/09/10 00:23:26;;;;;;;16.65;14.95;;;19.10;99.90;;;;;;5019906;28;20033;-65
2023/09/10 00:25:54;;;;;;;16.95;15.25;;;19.00;99.90;;;;;;5035969;28;20072;-65
2023/09/10 00:28:20;;;;;;;17.52;15.70;;;19.00;99.90;;;;;;5035939;28;20052;-64
2023/09/10 00:30:54;;;;;;;19.83;17.83;;;19.00;99.90;;;;;;5035989;28;20041;-65
2023/09/10 00:33:20;;;;;;;20.13;18.23;;;19.00;99.90;;;;;;5036209;28;20373;-65
2023/09/10 00:35:46;;;;;;;20.02;18.02;;;19.00;99.90;;;;;;5035833;28;20041;-65
2023/09/10 00:38:12;;;;;;;18.83;16.83;;;18.90;99.90;;;;;;5019400;28;20063;-65
2023/09/10 00:40:38;;;;;;;18.80;16.90;;;18.90;99.90;;;;;;5035593;28;20246;-64
2023/09/10 00:43:04;;;;;;;19.13;17.30;;;18.90;99.90;;;;;;5035760;28;20076;-63
2023/09/10 00:45:30;;;;;;;17.95;16.05;;;18.80;99.90;;;;;;5035682;28;20501;-66
2023/09/10 00:47:57;;;;;;;17.92;16.13;;;18.80;99.90;;;;;;5019153;28;20044;-65
2023/09/10 00:50:23;;;;;;;17.42;15.73;;;18.80;99.90;;;;;;5035652;28;20057;-65
2023/09/10 00:52:55;;;;;;;17.70;15.90;;;18.80;99.90;;;;;;5035794;28;20048;-65
2023/09/10 00:55:22;;;;;;;17.33;15.63;;;18.80;99.90;;;;;;5035635;28;20095;-64
2023/09/10 00:57:49;;;;;;;16.63;14.93;;;18.80;99.90;;;;;;5035741;28;20569;-65
2023/09/10 01:00:16;;;;;;;18.10;16.20;;;18.80;99.90;;;;;;5035362;28;20041;-64
2023/09/10 01:02:44;;;;;;;17.70;15.80;;;18.80;99.90;;;;;;5035389;28;20040;-65
2023/09/10 01:05:11;;;;;;;17.85;16.05;;;18.80;99.90;;;;;;5051989;28;20041;-64
2023/09/10 01:07:38;;;;;;;17.23;15.48;;;18.80;99.90;;;;;;5035240;28;20131;-66
2023/09/10 01:10:08;;;;;;;15.98;14.38;;;18.80;99.90;;;;;;5035253;28;20102;-65
2023/09/10 01:12:45;;;;;;;16.60;14.90;;;18.80;99.90;;;;;;5052021;28;20029;-64
2023/09/10 01:15:41;;;;;;;15.63;14.05;;;18.70;99.90;;;;;;5035034;28;20049;-66
2023/09/10 01:18:34;;;;;;;16.98;15.20;;;18.70;99.90;;;;;;5035183;28;20049;-65
2023/09/10 01:21:00;;;;;;;16.10;14.40;;;18.70;99.90;;;;;;5035239;28;20040;-65
2023/09/10 01:23:41;;;;;;;15.68;14.07;;;18.70;99.90;;;;;;5035044;28;20101;-65
2023/09/10 01:26:07;;;;;;;16.70;14.95;;;18.60;99.90;;;;;;5034949;28;20214;-63
2023/09/10 01:28:33;;;;;;;15.02;13.45;;;18.60;99.90;;;;;;5053243;28;20580;-65
2023/09/10 01:30:58;;;;;;;16.30;14.70;;;18.60;99.90;;;;;;5034996;28;20055;-65
2023/09/10 01:33:35;;;;;;;17.40;15.60;;;18.50;99.90;;;;;;5053163;28;20554;-65
2023/09/10 01:36:31;;;;;;;16.58;14.80;;;18.50;99.90;;;;;;5035067;28;20124;-66
2023/09/10 01:39:10;;;;;;;17.77;16.02;;;18.50;99.90;;;;;;5051622;28;20041;-65
2023/09/10 01:41:39;;;;;;;16.60;14.90;;;18.40;99.90;;;;;;5034747;28;20052;-65
2023/09/10 01:44:06;;;;;;;16.55;14.85;;;18.40;99.90;;;;;;5018532;28;20041;-65
2023/09/10 01:46:35;;;;;;;22.48;20.33;;;18.40;99.90;;;;;;5052734;28;20048;-65
2023/09/10 01:49:04;;;;;;;19.98;18.00;;;18.40;99.90;;;;;;5034822;28;20041;-66
2023/09/10 01:51:30;;;;;;;17.95;16.08;;;18.40;99.90;;;;;;5034961;28;20064;-64
2023/09/10 01:53:55;;;;;;;19.58;17.38;;;18.30;99.90;;;;;;5034761;28;20037;-65
2023/09/10 01:56:22;;;;;;;22.33;20.15;;;18.30;99.90;;;;;;5018382;28;20067;-64
2023/09/10 01:58:47;;;;;;;20.48;18.38;;;18.30;99.90;;;;;;5035016;28;20068;-65
2023/09/10 02:01:13;;;;;;;19.13;17.13;;;18.30;99.90;;;;;;5034977;28;20076;-65
2023/09/10 02:03:39;;;;;;;18.17;16.27;;;18.20;99.90;;;;;;5018362;28;20052;-65
2023/09/10 02:06:06;;;;;;;27.10;24.35;;;18.20;99.90;;;;;;5034653;28;20049;-66
2023/09/10 02:08:31;;;;;;;21.55;19.35;;;18.30;99.90;;;;;;5034870;28;20044;-65
2023/09/10 02:10:57;;;;;;;24.38;21.98;;;18.30;99.90;;;;;;5034566;28;20045;-65
2023/09/10 02:13:23;;;;;;;23.17;20.88;;;18.20;99.90;;;;;;5034551;28;20041;-65
2023/09/10 02:15:49;;;;;;;20.58;18.50;;;18.20;99.90;;;;;;5034414;28;20404;-65
2023/09/10 02:18:15;;;;;;;20.52;18.52;;;18.20;99.90;;;;;;5018360;28;20041;-65
2023/09/10 02:20:41;;;;;;;21.38;19.23;;;18.10;99.90;;;;;;5034511;28;20043;-65
2023/09/10 02:23:08;;;;;;;23.67;21.27;;;18.10;99.90;;;;;;5034458;28;20033;-65
2023/09/10 02:25:33;;;;;;;23.15;20.85;;;18.10;99.90;;;;;;5034579;28;20045;-65
2023/09/10 02:28:01;;;;;;;23.17;20.77;;;18.10;99.90;;;;;;5034531;28;20155;-66
2023/09/10 02:30:27;;;;;;;22.95;20.75;;;18.00;99.90;;;;;;5034845;28;20493;-70
2023/09/10 02:32:52;;;;;;;21.98;19.77;;;18.00;99.90;;;;;;5018135;28;20125;-70
2023/09/10 02:35:18;;;;;;;22.25;20.00;;;18.00;99.90;;;;;;5034440;28;20098;-71
2023/09/10 02:37:44;;;;;;;22.90;20.60;;;18.00;99.90;;;;;;5053307;28;20036;-71
2023/09/10 02:40:10;;;;;;;21.70;19.50;;;18.00;99.90;;;;;;5038150;28;20049;-72
2023/09/10 02:42:37;;;;;;;21.08;18.98;;;18.00;99.90;;;;;;5037896;28;20045;-72
2023/09/10 02:45:04;;;;;;;21.30;19.13;;;17.90;99.90;;;;;;5038161;28;20067;-72
2023/09/10 02:47:29;;;;;;;20.80;18.70;;;17.90;99.90;;;;;;5038110;28;20489;-71
2023/09/10 02:49:55;;;;;;;26.17;23.58;;;17.90;99.90;;;;;;5005339;28;20036;-71
2023/09/10 02:52:24;;;;;;;22.95;20.65;;;17.90;99.90;;;;;;5021292;28;20196;-71
2023/09/10 02:54:51;;;;;;;21.95;19.75;;;17.90;99.90;;;;;;5038221;28;20045;-70
2023/09/10 02:57:17;;;;;;;21.52;19.42;;;17.80;99.90;;;;;;5037711;28;20033;-70
2023/09/10 02:59:42;;;;;;;21.35;19.17;;;17.90;99.90;;;;;;5037646;28;20052;-71
2023/09/10 03:02:08;;;;;;;20.55;18.45;;;17.80;99.90;;;;;;5037951;28;20045;-70
2023/09/10 03:04:34;;;;;;;19.75;17.85;;;17.80;99.90;;;;;;5021170;28;20041;-70
2023/09/10 03:07:01;;;;;;;20.83;18.73;;;17.80;99.90;;;;;;5038130;28;20044;-70
2023/09/10 03:09:27;;;;;;;22.92;20.73;;;17.80;99.90;;;;;;5037731;28;20405;-70
2023/09/10 03:11:57;;;;;;;20.67;18.55;;;17.80;99.90;;;;;;5055469;28;20036;-70
2023/09/10 03:14:23;;;;;;;20.35;18.40;;;17.80;99.90;;;;;;5037484;28;20484;-71
2023/09/10 03:16:49;;;;;;;22.52;20.33;;;17.70;99.90;;;;;;5021135;28;20098;-72
2023/09/10 03:19:14;;;;;;;20.48;18.48;;;17.70;99.90;;;;;;5037561;28;20082;-70
2023/09/10 03:21:40;;;;;;;20.38;18.38;;;17.70;99.90;;;;;;5037415;28;20504;-72
2023/09/10 03:24:06;;;;;;;22.63;20.33;;;17.70;99.90;;;;;;5037394;28;20485;-72
2023/09/10 03:26:32;;;;;;;23.40;21.13;;;17.70;99.90;;;;;;5020898;28;20049;-72
2023/09/10 03:28:58;;;;;;;24.92;22.50;;;17.70;99.90;;;;;;5037281;28;20120;-70
2023/09/10 03:31:23;;;;;;;23.33;20.92;;;17.70;99.90;;;;;;5036962;28;20481;-69
2023/09/10 03:33:49;;;;;;;27.17;24.50;;;17.70;99.90;;;;;;5054007;28;20036;-71
2023/09/10 03:36:15;;;;;;;24.42;22.13;;;17.60;99.90;;;;;;5036984;28;20076;-71
2023/09/10 03:38:41;;;;;;;21.88;19.80;;;17.60;99.90;;;;;;5037704;28;20090;-71
2023/09/10 03:41:06;;;;;;;21.65;19.55;;;17.60;99.90;;;;;;5036910;28;20044;-71
2023/09/10 03:43:32;;;;;;;20.77;18.67;;;17.60;99.90;;;;;;5036806;28;20053;-71
2023/09/10 03:45:58;;;;;;;20.42;18.42;;;17.60;99.90;;;;;;5020682;28;20072;-71
2023/09/10 03:48:24;;;;;;;20.50;18.50;;;17.50;99.90;;;;;;5036765;28;20044;-71
2023/09/10 03:50:49;;;;;;;20.63;18.63;;;17.50;99.90;;;;;;5036002;28;20081;-72
2023/09/10 03:53:17;;;;;;;25.60;23.10;;;17.50;99.90;;;;;;5036999;28;20045;-72
2023/09/10 03:55:42;;;;;;;21.42;19.30;;;17.50;99.90;;;;;;5020345;28;20036;-71
2023/09/10 03:58:08;;;;;;;21.65;19.45;;;17.50;99.90;;;;;;5020399;28;20045;-72
2023/09/10 04:00:34;;;;;;;22.52;20.33;;;17.50;99.90;;;;;;5036479;28;20037;-70
2023/09/10 04:03:00;;;;;;;22.02;19.80;;;17.50;99.90;;;;;;5054387;28;20033;-70
2023/09/10 04:05:26;;;;;;;21.20;19.10;;;17.50;99.90;;;;;;5020064;28;20098;-70
2023/09/10 04:07:52;;;;;;;21.60;19.40;;;17.50;99.90;;;;;;5036376;28;20052;-70
2023/09/10 04:10:18;;;;;;;20.52;18.52;;;17.40;99.90;;;;;;5036354;28;20444;-70
2023/09/10 04:12:43;;;;;;;20.20;18.20;;;17.40;99.90;;;;;;5036330;28;20124;-71
2023/09/10 04:15:10;;;;;;;19.00;17.10;;;17.40;99.90;;;;;;5036354;28;20032;-71
2023/09/10 04:17:35;;;;;;;18.85;17.02;;;17.40;99.90;;;;;;5036384;28;20119;-71
2023/09/10 04:20:07;;;;;;;18.05;16.25;;;17.40;99.90;;;;;;5019996;28;20167;-71
2023/09/10 04:22:32;;;;;;;17.33;15.63;;;17.40;99.90;;;;;;5036145;28;20033;-70
2023/09/10 04:24:58;;;;;;;16.90;15.20;;;17.40;99.90;;;;;;5053859;28;20045;-70
2023/09/10 04:27:24;;;;;;;16.33;14.73;;;17.40;99.90;;;;;;5036308;28;20128;-70
2023/09/10 04:29:49;;;;;;;16.67;14.98;;;17.40;99.90;;;;;;5036177;28;20037;-71
2023/09/10 04:32:15;;;;;;;15.65;14.05;;;17.30;99.90;;;;;;5019359;28;20041;-70
2023/09/10 04:34:41;;;;;;;15.50;13.90;;;17.40;99.90;;;;;;5036074;28;20123;-71
2023/09/10 04:37:07;;;;;;;14.55;12.90;;;17.30;99.90;;;;;;5035746;28;20044;-71
2023/09/10 04:39:32;;;;;;;15.07;13.57;;;17.30;99.90;;;;;;5035869;28;20095;-71
2023/09/10 04:41:58;;;;;;;14.90;13.40;;;17.20;99.90;;;;;;5035619;28;20452;-71
2023/09/10 04:44:24;;;;;;;18.75;16.88;;;17.20;99.90;;;;;;5035731;28;20081;-71
2023/09/10 04:46:50;;;;;;;21.17;19.10;;;17.30;99.90;;;;;;5035613;28;20095;-70
2023/09/10 04:49:15;;;;;;;17.92;16.15;;;17.30;99.90;;;;;;5036001;28;20393;-70
2023/09/10 04:51:41;;;;;;;16.42;14.82;;;17.20;99.90;;;;;;5035789;28;20037;-64
2023/09/10 04:54:07;;;;;;;15.70;14.10;;;17.20;99.90;;;;;;5002634;28;20047;-65
2023/09/10 04:56:32;;;;;;;16.15;14.45;;;17.20;99.90;;;;;;5018869;28;20076;-64
2023/09/10 04:58:58;;;;;;;16.17;14.57;;;17.20;99.90;;;;;;5019212;28;20041;-64
2023/09/10 05:01:24;;;;;;;16.23;14.55;;;17.20;99.90;;;;;;5052657;28;20041;-64
2023/09/10 05:03:50;;;;;;;15.35;13.75;;;17.20;99.90;;;;;;5035406;28;20041;-64
2023/09/10 05:06:17;;;;;;;15.38;13.77;;;17.20;99.90;;;;;;5035214;28;20397;-65
2023/09/10 05:08:42;;;;;;;15.73;14.07;;;17.20;99.90;;;;;;5035445;28;20048;-65
2023/09/10 05:11:08;;;;;;;15.52;13.93;;;17.20;99.90;;;;;;5053097;28;20041;-65
2023/09/10 05:13:34;;;;;;;15.77;14.10;;;17.10;99.90;;;;;;5018749;28;20041;-65
2023/09/10 05:16:00;;;;;;;14.93;13.43;;;17.20;99.90;;;;;;5035006;28;20072;-66
2023/09/10 05:18:26;;;;;;;14.60;13.10;;;17.10;99.90;;;;;;5035401;28;20041;-65
2023/09/10 05:20:52;;;;;;;15.40;13.00;;;17.10;99.90;;;;;;5035124;28;20094;-66
2023/09/10 05:23:21;;;;;;;28.30;25.58;;;17.10;99.90;;;;;;5035078;28;20045;-66
2023/09/10 05:25:47;;;;;;;15.68;14.05;;;17.10;99.90;;;;;;5003024;28;20041;-66
2023/09/10 05:28:13;;;;;;;14.73;13.23;;;17.00;99.90;;;;;;5052819;28;20044;-66
2023/09/10 05:30:39;;;;;;;16.45;14.77;;;17.10;99.90;;;;;;5035424;28;20155;-66
2023/09/10 05:33:04;;;;;;;12.93;11.48;;;17.00;99.90;;;;;;5035321;28;20544;-67
2023/09/10 05:35:31;;;;;;;15.07;13.57;;;17.00;99.90;;;;;;5018590;28;20129;-65
2023/09/10 05:37:57;;;;;;;18.67;16.88;;;17.10;99.90;;;;;;5035055;28;20051;-65
2023/09/10 05:40:22;;;;;;;15.05;13.43;;;17.00;99.90;;;;;;5018598;28;20456;-65
2023/09/10 05:42:48;;;;;;;14.05;12.55;;;17.10;99.90;;;;;;5052690;28;20137;-65
2023/09/10 05:45:14;;;;;;;21.48;19.40;;;17.10;99.90;;;;;;5035271;28;20041;-65
2023/09/10 05:47:40;;;;;;;22.95;20.75;;;17.10;99.90;;;;;;5018497;28;20049;-64
2023/09/10 05:50:06;;;;;;;22.83;20.75;;;17.10;99.90;;;;;;5034957;28;20063;-65
2023/09/10 05:52:31;;;;;;;30.33;27.40;;;17.10;99.90;;;;;;5034838;28;20053;-65
2023/09/10 05:54:57;;;;;;;25.02;22.63;;;17.00;99.90;;;;;;5034860;28;20041;-65
2023/09/10 05:57:23;;;;;;;25.30;22.90;;;17.00;99.90;;;;;;5035014;28;20044;-66
2023/09/10 05:59:49;;;;;;;38.22;34.35;;;17.00;99.90;;;;;;5034923;28;20047;-66
2023/09/10 06:02:15;;;;;;;34.22;30.90;;;17.00;99.90;;;;;;5018700;28;20033;-66
2023/09/10 06:04:41;;;;;;;36.63;32.92;;;17.00;99.90;;;;;;5034767;28;20124;-66
2023/09/10 06:07:07;;;;;;;38.55;34.70;;;17.00;99.90;;;;;;5034684;28;20041;-65
2023/09/10 06:09:33;;;;;;;47.78;42.92;;;17.00;99.90;;;;;;5018356;28;20120;-66
2023/09/10 06:12:02;;;;;;;44.92;40.42;;;17.20;99.90;;;;;;5034994;28;20077;-66
2023/09/10 06:14:30;;;;;;;41.42;37.22;;;17.30;99.90;;;;;;5038501;28;20052;-64
2023/09/10 06:16:56;;;;;;;36.88;33.13;;;17.50;99.90;;;;;;5022385;28;20049;-66
2023/09/10 06:19:22;;;;;;;44.88;40.47;;;17.70;99.90;;;;;;5038349;28;20124;-65
2023/09/10 06:21:48;;;;;;;46.97;42.22;;;18.00;99.90;;;;;;5038346;28;20187;-66
2023/09/10 06:24:15;;;;;;;44.58;40.08;;;18.30;99.90;;;;;;5038627;28;20087;-65
2023/09/10 06:26:41;;;;;;;45.05;40.55;;;18.70;99.90;;;;;;5038333;28;20124;-66
2023/09/10 06:29:07;;;;;;;41.83;37.63;;;19.20;99.90;;;;;;5038211;28;20041;-66
2023/09/10 06:31:32;;;;;;;39.25;35.35;;;19.60;99.90;;;;;;5038049;28;20041;-66
2023/09/10 06:33:58;;;;;;;32.92;29.83;;;20.10;99.90;;;;;;5038038;28;20550;-66
2023/09/10 06:36:24;;;;;;;32.63;29.58;;;20.40;99.90;;;;;;5037846;28;20072;-64
2023/09/10 06:38:50;;;;;;;33.70;30.40;;;20.70;99.90;;;;;;5056202;28;20116;-65
2023/09/10 06:41:16;;;;;;;32.60;29.27;;;21.00;99.90;;;;;;5037881;28;20087;-65
2023/09/10 06:43:43;;;;;;;32.20;29.20;;;21.50;99.90;;;;;;5037997;28;20053;-65
2023/09/10 06:46:09;;;;;;;35.17;31.70;;;21.90;99.90;;;;;;5055980;28;20105;-65
2023/09/10 06:48:35;;;;;;;35.35;31.95;;;22.20;99.90;;;;;;5037930;28;20116;-64
2023/09/10 06:51:02;;;;;;;35.90;32.40;;;22.50;99.90;;;;;;5021748;28;20060;-66
2023/09/10 06:53:28;;;;;;;33.72;30.45;;;22.80;99.90;;;;;;5005149;28;20045;-65
2023/09/10 06:55:54;;;;;;;37.85;34.28;;;23.20;99.90;;;;;;5037855;28;20489;-64
2023/09/10 06:58:21;;;;;;;36.53;32.90;;;23.40;99.90;;;;;;5037642;28;20098;-66
2023/09/10 07:00:46;;;;;;;35.83;32.38;;;23.50;99.90;;;;;;5037724;28;20044;-66
2023/09/10 07:03:13;;;;;;;32.47;29.33;;;23.90;99.90;;;;;;5037778;28;20033;-65
2023/09/10 07:05:40;;;;;;;30.88;27.95;;;24.10;99.90;;;;;;5037596;28;20102;-65
2023/09/10 07:08:07;;;;;;;37.13;33.55;;;24.30;99.90;;;;;;5037621;28;20040;-66
2023/09/10 07:10:33;;;;;;;33.35;30.25;;;24.00;99.90;;;;;;5037515;28;20049;-71
2023/09/10 07:13:01;;;;;;;32.75;29.65;;;24.40;99.90;;;;;;5037838;28;20060;-71
2023/09/10 07:15:27;;;;;;;33.90;30.77;;;24.50;99.90;;;;;;5037540;28;20033;-70
2023/09/10 07:17:53;;;;;;;35.60;32.05;;;24.80;99.90;;;;;;5037415;28;20493;-71
2023/09/10 07:20:19;;;;;;;35.45;31.92;;;24.90;99.90;;;;;;5020848;28;20095;-71
2023/09/10 07:22:44;;;;;;;35.22;31.83;;;25.00;99.90;;;;;;5037383;28;20037;-70
2023/09/10 07:25:10;;;;;;;34.95;31.65;;;25.20;99.90;;;;;;5020464;28;20090;-70
2023/09/10 07:27:36;;;;;;;35.83;32.40;;;25.40;99.90;;;;;;5037495;28;20123;-69
2023/09/10 07:30:05;;;;;;;32.05;28.98;;;25.30;99.90;;;;;;5020694;28;20093;-69
2023/09/10 07:32:31;;;;;;;40.25;36.17;;;25.50;99.90;;;;;;5020477;28;20102;-69
2023/09/10 07:34:57;;;;;;;40.78;36.97;;;25.60;99.90;;;;;;5020582;28;20041;-71
2023/09/10 07:37:22;;;;;;;38.63;34.92;;;25.00;99.90;;;;;;5037684;28;20094;-70
2023/09/10 07:39:48;;;;;;;37.72;34.03;;;24.60;99.90;;;;;;5054803;28;20055;-70
2023/09/10 07:42:14;;;;;;;34.47;31.27;;;24.60;99.90;;;;;;5033388;28;20080;-70
2023/09/10 07:44:41;;;;;;;37.75;34.05;;;24.80;99.90;;;;;;5033966;28;20103;-70
2023/09/10 07:47:07;;;;;;;35.85;32.47;;;24.40;99.90;;;;;;5017275;28;20048;-71
2023/09/10 07:49:33;;;;;;;34.25;31.08;;;24.50;99.90;;;;;;5033464;28;20116;-70
2023/09/10 07:51:59;;;;;;;37.80;34.40;;;24.90;99.90;;;;;;5033517;28;20533;-70
2023/09/10 07:54:25;;;;;;;36.97;33.60;;;25.20;99.90;;;;;;5033755;28;20048;-72
2023/09/10 07:56:50;;;;;;;36.15;32.67;;;25.20;99.90;;;;;;5033460;28;20056;-71
2023/09/10 07:59:16;;;;;;;37.55;34.05;;;24.80;99.90;;;;;;5016969;28;20045;-71
2023/09/10 08:01:42;;;;;;;39.15;35.55;;;24.40;99.90;;;;;;5033128;28;20524;-71
2023/09/10 08:04:08;;;;;;;37.85;34.35;;;24.20;99.90;;;;;;5033193;28;20132;-71
2023/09/10 08:06:34;;;;;;;32.08;28.98;;;24.20;99.90;;;;;;5016808;28;20507;-70
2023/09/10 08:08:59;;;;;;;30.20;27.40;;;24.40;99.90;;;;;;5033073;28;20049;-71
2023/09/10 08:11:25;;;;;;;29.17;26.27;;;24.60;99.90;;;;;;5033080;28;20049;-71
2023/09/10 08:13:51;;;;;;;29.80;26.88;;;24.70;99.90;;;;;;5016658;28;20107;-72
2023/09/10 08:16:17;;;;;;;29.92;26.98;;;24.60;99.90;;;;;;5034225;28;20034;-70
2023/09/10 08:18:44;;;;;;;34.22;31.02;;;24.60;99.90;;;;;;5032916;28;20041;-70
2023/09/10 08:21:11;;;;;;;25.30;22.90;;;24.70;99.90;;;;;;5016893;28;20033;-71
2023/09/10 08:23:36;;;;;;;20.20;18.15;;;24.70;99.90;;;;;;5032904;28;20068;-71
2023/09/10 08:26:02;;;;;;;20.08;18.02;;;24.70;99.90;;;;;;5016617;28;20045;-70
2023/09/10 08:28:28;;;;;;;18.70;16.80;;;24.60;99.90;;;;;;5032791;28;20053;-71
2023/09/10 08:30:54;;;;;;;19.73;17.73;;;24.70;99.90;;;;;;5032647;28;20080;-70
2023/09/10 08:33:21;;;;;;;22.30;20.20;;;24.80;99.90;;;;;;5032705;28;20139;-70
2023/09/10 08:35:51;;;;;;;22.88;20.60;;;24.60;99.90;;;;;;5032044;28;20076;-70
2023/09/10 08:38:17;;;;;;;21.38;19.27;;;24.80;99.90;;;;;;5016033;28;20124;-70
2023/09/10 08:40:53;;;;;;;19.38;17.40;;;25.20;99.90;;;;;;5016131;28;20480;-70
2023/09/10 08:43:26;;;;;;;21.80;19.70;;;25.20;99.90;;;;;;5035974;28;20056;-70
2023/09/10 08:45:52;;;;;;;23.77;21.48;;;25.40;99.90;;;;;;5035729;28;20049;-70
2023/09/10 08:48:23;;;;;;;23.42;21.13;;;25.50;99.90;;;;;;5035919;28;20536;-71
2023/09/10 08:50:50;;;;;;;25.40;22.92;;;25.80;99.90;;;;;;5035954;28;20497;-70
2023/09/10 08:53:17;;;;;;;23.45;21.15;;;25.60;99.90;;;;;;5035561;28;20091;-70
2023/09/10 08:55:47;;;;;;;22.33;20.13;;;25.80;99.90;;;;;;5035608;28;20036;-70
2023/09/10 08:58:14;;;;;;;22.02;19.63;;;25.70;99.90;;;;;;5053639;28;20531;-71
2023/09/10 09:00:45;;;;;;;22.08;19.98;;;25.60;99.90;;;;;;5003129;28;20045;-70
2023/09/10 09:03:11;;;;;;;22.80;20.60;;;25.80;99.90;;;;;;5035547;28;20072;-70
2023/09/10 09:05:39;;;;;;;20.65;18.70;;;25.70;99.90;;;;;;5052650;28;20037;-70
2023/09/10 09:08:10;;;;;;;22.00;18.70;;;25.80;99.90;;;;;;5035797;28;20037;-69
2023/09/10 09:10:36;;;;;;;19.92;17.95;;;25.80;99.90;;;;;;5035383;28;20049;-70
2023/09/10 09:13:06;;;;;;;19.83;17.92;;;26.00;99.90;;;;;;5035246;28;20045;-70
2023/09/10 09:15:32;;;;;;;21.20;19.08;;;26.20;99.90;;;;;;5053138;28;20037;-70
2023/09/10 09:17:59;;;;;;;17.60;15.90;;;26.20;99.90;;;;;;5019271;28;20112;-71
2023/09/10 09:20:26;;;;;;;17.50;15.70;;;26.30;99.90;;;;;;5035249;28;20040;-71
2023/09/10 09:23:09;;;;;;;16.77;15.07;;;26.50;99.90;;;;;;5035205;28;20036;-69
2023/09/10 09:25:36;;;;;;;16.00;14.40;;;26.70;99.90;;;;;;5035551;28;20043;-71
2023/09/10 09:28:03;;;;;;;17.17;15.10;;;26.90;99.90;;;;;;5035110;28;20083;-70
2023/09/10 09:30:29;;;;;;;15.10;13.60;;;27.00;99.80;;;;;;5035484;28;20055;-65
2023/09/10 09:32:56;;;;;;;16.02;14.13;;;27.10;99.90;;;;;;5018580;28;20040;-65
2023/09/10 09:35:22;;;;;;;18.85;17.05;;;27.30;99.50;;;;;;5035064;28;20489;-66
2023/09/10 09:37:48;;;;;;;17.23;15.43;;;27.20;99.30;;;;;;5034991;28;20140;-66
2023/09/10 09:40:20;;;;;;;17.23;15.45;;;27.10;99.90;;;;;;5018749;28;20043;-65
2023/09/10 09:42:46;;;;;;;15.60;13.80;;;27.00;99.70;;;;;;5018529;28;20570;-65
2023/09/10 09:45:12;;;;;;;15.43;13.82;;;27.10;99.90;;;;;;5035148;28;20053;-65
2023/09/10 09:47:38;;;;;;;14.85;13.45;;;27.30;99.00;;;;;;5055291;28;20041;-66
2023/09/10 09:50:14;;;;;;;16.17;13.20;;;27.10;99.00;;;;;;5038889;28;20084;-66
2023/09/10 09:52:40;;;;;;;15.73;13.30;;;27.30;98.60;;;;;;5038986;28;20041;-66
2023/09/10 09:55:07;;;;;;;15.50;12.10;;;27.20;98.50;;;;;;5038849;28;20088;-67
2023/09/10 09:57:36;;;;;;;15.07;13.50;;;27.40;98.80;;;;;;5039054;28;20033;-67
2023/09/10 10:00:08;;;;;;;14.30;12.15;;;27.30;97.70;;;;;;5038983;28;20507;-67
2023/09/10 10:02:34;;;;;;;18.40;12.82;;;27.50;98.60;;;;;;5022436;28;20048;-67
2023/09/10 10:05:00;;;;;;;14.05;11.90;;;27.60;98.30;;;;;;5038670;28;20040;-68
2023/09/10 10:07:28;;;;;;;14.70;11.75;;;27.70;99.20;;;;;;5038692;28;20132;-66
2023/09/10 10:09:53;;;;;;;14.27;12.02;;;27.80;98.90;;;;;;5038571;28;20052;-66
2023/09/10 10:12:20;;;;;;;15.23;12.52;;;28.00;97.40;;;;;;5038452;28;20412;-67
2023/09/10 10:14:47;;;;;;;13.82;11.93;;;28.00;97.30;;;;;;5021952;28;20033;-66
2023/09/10 10:17:15;;;;;;;14.30;12.68;;;28.00;97.40;;;;;;5038468;28;20120;-66
2023/09/10 10:19:41;;;;;;;14.40;12.43;;;28.10;97.30;;;;;;5022423;28;20103;-66
2023/09/10 10:22:08;;;;;;;14.27;12.40;;;28.10;97.00;;;;;;5055147;28;20041;-66
2023/09/10 10:24:35;;;;;;;14.80;13.13;;;28.10;97.40;;;;;;5038572;28;20133;-68
2023/09/10 10:27:05;;;;;;;15.38;13.48;;;28.30;97.80;;;;;;5038556;28;20497;-66
2023/09/10 10:29:32;;;;;;;13.32;11.93;;;28.10;97.50;;;;;;5038237;28;20073;-66
2023/09/10 10:32:07;;;;;;;13.32;11.07;;;28.20;97.60;;;;;;5038315;28;20044;-66
2023/09/10 10:34:38;;;;;;;12.70;10.95;;;28.30;97.90;;;;;;5038066;28;20041;-66
2023/09/10 10:37:12;;;;;;;14.18;11.68;;;28.40;98.00;;;;;;5038509;28;20052;-66
2023/09/10 10:40:11;;;;;;;15.30;13.45;;;28.40;96.50;;;;;;5022170;28;20090;-65
2023/09/10 10:42:54;;;;;;;12.95;11.52;;;28.40;95.90;;;;;;5055751;28;20451;-70
2023/09/10 10:45:22;;;;;;;14.32;11.73;;;28.40;95.70;;;;;;5037881;28;20057;-71
2023/09/10 10:47:49;;;;;;;14.38;11.15;;;28.30;95.80;;;;;;5021569;28;20048;-70
2023/09/10 10:50:24;;;;;;;13.77;10.30;;;28.30;96.80;;;;;;5037905;28;20044;-71
2023/09/10 10:53:02;;;;;;;13.15;10.57;;;28.50;96.80;;;;;;5037839;28;20098;-70
2023/09/10 10:55:29;;;;;;;14.18;11.60;;;28.50;96.60;;;;;;5055902;28;20443;-71
2023/09/10 10:57:55;;;;;;;12.45;11.05;;;28.50;95.50;;;;;;5038176;28;20067;-70
2023/09/10 11:00:22;;;;;;;14.40;11.50;;;28.60;95.10;;;;;;5037551;28;20507;-71
2023/09/10 11:03:09;;;;;;;17.98;13.40;;;28.60;95.20;;;;;;5021513;28;20392;-70
2023/09/10 11:05:53;;;;;;;16.75;11.52;;;28.00;94.70;;;;;;5037678;28;20079;-70
2023/09/10 11:08:30;;;;;;;13.95;11.40;;;27.90;95.80;;;;;;5037786;28;20040;-71
2023/09/10 11:10:56;;;;;;;16.05;11.30;;;28.10;95.40;;;;;;5037730;28;20076;-70
2023/09/10 11:13:22;;;;;;;13.82;10.52;;;28.30;95.50;;;;;;5020904;28;20045;-71
2023/09/10 11:16:03;;;;;;;14.65;10.52;;;28.40;95.50;;;;;;5037377;28;20041;-71
2023/09/10 11:18:35;;;;;;;13.75;9.55;;;28.50;95.20;;;;;;5055530;28;20572;-70
2023/09/10 11:21:02;;;;;;;14.20;10.07;;;28.30;95.20;;;;;;5037874;28;20045;-71
2023/09/10 11:23:28;;;;;;;13.20;9.80;;;28.50;95.00;;;;;;5037172;28;20036;-71
2023/09/10 11:26:13;;;;;;;13.57;9.80;;;28.50;95.30;;;;;;5037566;28;20063;-70
2023/09/10 11:28:44;;;;;;;12.73;9.63;;;28.40;96.50;;;;;;5054023;28;20048;-70
2023/09/10 11:31:29;;;;;;;12.10;9.40;;;28.50;95.20;;;;;;5037309;28;20080;-69
2023/09/10 11:33:59;;;;;;;14.35;11.00;;;28.50;95.30;;;;;;5037135;28;20275;-70
2023/09/10 11:36:27;;;;;;;12.15;9.48;;;28.70;95.20;;;;;;5036930;28;20090;-71
2023/09/10 11:38:56;;;;;;;13.07;9.15;;;28.60;95.50;;;;;;5053724;28;20044;-70
2023/09/10 11:41:25;;;;;;;13.13;9.80;;;28.60;95.40;;;;;;5053724;28;20159;-70
2023/09/10 11:43:51;;;;;;;15.20;9.48;;;28.70;94.90;;;;;;5036785;28;20045;-69
2023/09/10 11:46:16;;;;;;;15.43;9.45;;;28.60;95.70;;;;;;5037145;28;20055;-71
2023/09/10 11:48:45;;;;;;;12.23;8.73;;;28.60;95.40;;;;;;5054713;28;20032;-70
2023/09/10 11:51:10;;;;;;;13.38;8.20;;;28.70;95.80;;;;;;5036756;28;20473;-67
2023/09/10 11:53:36;;;;;;;12.95;8.25;;;28.90;94.80;;;;;;5053598;28;20401;-66
2023/09/10 11:56:02;;;;;;;12.07;8.70;;;28.90;94.40;;;;;;5036508;28;20037;-66
2023/09/10 11:58:28;;;;;;;12.82;8.98;;;28.90;94.90;;;;;;5020079;28;20047;-66
2023/09/10 12:00:54;;;;;;;13.20;8.30;;;28.90;95.20;;;;;;5020558;28;20037;-65
2023/09/10 12:03:21;;;;;;;13.75;8.70;;;28.90;95.00;;;;;;5036821;28;20104;-66
2023/09/10 12:05:47;;;;;;;14.57;8.45;;;29.00;94.70;;;;;;5036760;28;20063;-67
2023/09/10 12:08:13;;;;;;;14.55;8.05;;;28.90;94.10;;;;;;5036587;28;20128;-66
2023/09/10 12:10:39;;;;;;;14.68;8.88;;;28.90;94.40;;;;;;5035627;28;20060;-65
2023/09/10 12:13:06;;;;;;;15.30;8.23;;;28.90;94.80;;;;;;5054130;28;20112;-66
2023/09/10 12:15:33;;;;;;;16.00;8.65;;;28.80;94.80;;;;;;5003512;28;20048;-66
2023/09/10 12:18:04;;;;;;;17.42;8.98;;;28.80;94.50;;;;;;5036405;28;20398;-66
2023/09/10 12:20:32;;;;;;;17.30;8.98;;;28.70;94.30;;;;;;5036406;28;20036;-65
2023/09/10 12:23:05;;;;;;;13.95;8.20;;;28.60;94.70;;;;;;5020019;28;20037;-66
2023/09/10 12:25:31;;;;;;;18.20;8.27;;;28.70;94.70;;;;;;5035920;28;20045;-65
2023/09/10 12:27:57;;;;;;;16.83;8.73;;;28.60;95.00;;;;;;5053911;28;20477;-65
2023/09/10 12:30:23;;;;;;;13.43;7.82;;;28.60;95.10;;;;;;5035950;28;20052;-65